Lagrange, Wyoming
Current Conditions -  °F | °C
As of 9:53 PM on Thursday 30 Oct 2014 (Local Time) from KTOR Reporting Station
Clear Clear  
Wind Chill: 31°   Ceiling: Unl
Heat Index: 37°   Visibility: 10mi
Dew Point: 30°   Wind: 8mph
Humidity: 76%   Direction: 90°E
Pressure: 30.4"   Gusts: NA
Location:  41.63°N, 104.35°W
Report Text: KTOR 310353Z AUTO 09007KT 10SM CLR 03/M01 A3040 RMK AO2 SLP303 T00281011
Loading
Personal Weather Stations






























Interactive Weather Map New forecast layout! Learn more

10-Day Weather Forecast

Advertisements
Track Severe Weather on mobile